METAR Data
IDs: Format: Raw Decoded Include TAF

Data at: 1216 UTC 23 Sep 2018

KPMP 231153Z 00000KT 10SM FEW030 26/23 A2996 RMK AO2 SLP147 T02610233 10278 20244 53009
KPMP 231053Z 31004KT 10SM CLR 24/22 A2995 RMK AO2 SLP143 T02440222
KPMP 230953Z AUTO 00000KT 10SM CLR 26/22 A2994 RMK AO2 SLP139 T02560222
KPMP 230853Z AUTO 08004KT 10SM CLR 27/23 A2994 RMK AO2 SLP138 T02720228 56011
KPMP 230753Z AUTO 00000KT 10SM CLR 26/22 A2994 RMK AO2 SLP140 T02610217
KPMP 230653Z AUTO 00000KT 10SM CLR 27/22 A2995 RMK AO2 SLP144 T02720222
KPMP 230553Z AUTO 11005KT 10SM CLR 28/22 A2997 RMK AO2 SLP149 T02780217 10289 20278 58008
KPMP 230453Z AUTO 12005KT 10SM CLR 28/22 A2998 RMK AO2 SLP152 T02830217 403220256
KPMP 230353Z AUTO 09003KT 10SM CLR 28/22 A2999 RMK AO2 SLP156 T02830222
KPMP 230253Z AUTO 09006KT 10SM CLR 28/23 A2999 RMK AO2 SLP157 T02830228 51013
KPMP 230153Z AUTO 08007KT 10SM CLR 29/23 A2998 RMK AO2 SLP154 T02890228
KPMP 230053Z 08009KT 10SM CLR 28/22 A2997 RMK AO2 SLP149 T02830222
KPMP 222353Z 08006KT 10SM CLR 29/23 A2996 RMK AO2 SLP144 T02890228 10322 20289 53002
KPMP 222253Z 10006KT 10SM FEW021 SCT100 29/24 A2996 RMK AO2 SLP144 T02890239
KPMP 222153Z 10008KT 10SM FEW020 30/24 A2995 RMK AO2 SLP141 T03000239
KPMP 222053Z 10009KT 10SM CLR 31/23 A2995 RMK AO2 SLP142 T03060228 56014
KPMP 221953Z 10008KT 10SM FEW027 SCT075 SCT200 31/23 A2996 RMK AO2 SLP147 T03110233
KPMP 221853Z 09009KT 10SM FEW027 32/22 A2997 RMK AO2 LTG DSNT SW SLP149 T03170222
KPMP 221753Z 07009KT 10SM CLR 32/22 A2999 RMK AO2 LTG DSNT W SLP156 T03170222 10322 20272 58007
KPMP 221653Z 09011KT 10SM CLR 32/23 A3001 RMK AO2 SLP161 T03170228
KPMP 221553Z 06009KT 10SM CLR 32/23 A3002 RMK AO2 SLP165 T03170228
KPMP 221453Z 08008KT 10SM CLR 32/23 A3001 RMK AO2 SLP163 T03170233 53003
KPMP 221353Z 04006KT 10SM FEW028 31/23 A3000 RMK AO2 SLP159 T03060233
KPMP 221253Z 01006KT 10SM FEW029 29/23 A3000 RMK AO2 SLP161 T02940228
KPMP 221153Z 02005KT 10SM CLR 27/23 A3000 RMK AO2 SLP160 70008 T02720233 10283 20256 53008
KPMP 221053Z 32004KT 10SM FEW026 26/24 A2999 RMK AO2 SLP157 T02610239
KPMP 220953Z AUTO 00000KT 10SM CLR 26/23 A2998 RMK AO2 SLP154 T02610228
KPMP 220853Z AUTO 00000KT 10SM CLR 27/22 A2998 RMK AO2 SLP151 T02670222 56010
KPMP 220753Z AUTO 11003KT 10SM CLR 28/23 A2998 RMK AO2 SLP152 T02780228
KPMP 220653Z AUTO 10004KT 10SM CLR 28/23 A2999 RMK AO2 SLP155 T02780233
KPMP 220553Z AUTO 08005KT 10SM FEW021 FEW027 28/24 A3001 RMK AO2 SLP162 T02830239 10289 20278 58007
KPMP 220453Z AUTO 09003KT 10SM FEW023 28/24 A3002 RMK AO2 LTG DSNT S SLP166 T02780239 403220272
KPMP 220353Z AUTO 08006KT 10SM FEW024 28/24 A3004 RMK AO2 SLP172 T02830239
KPMP 220253Z AUTO 10008KT 10SM FEW020 28/24 A3003 RMK AO2 SLP169 T02830239 53008
KPMP 220153Z AUTO 08008KT 10SM CLR 28/24 A3002 RMK AO2 SLP167 T02830239
KPMP 220053Z 09010KT 10SM CLR 28/24 A3000 RMK AO2 SLP161 T02830244